Time;durP1;ratioP1;P1;durP2;ratioP2;P2;SDS_P1;SDS_P2;PMS_P1;PMS_P2;Temp;Humidity;BMP_temperature;BMP_pressure;BME280_temperature;BME280_humidity;BME280_pressure;Samples;Min_cycle;Max_cycle;Signal;HPM_P1;HPM_P2
2023/03/18 00:00:02;;;;;;;1.52;0.70;;;12.40;80.80;;;;;;6218341;23;20039;-92
2023/03/18 00:07:19;;;;;;;4.18;0.55;;;12.30;81.10;;;;;;6128326;23;20010;-87
2023/03/18 00:10:04;;;;;;;2.00;0.80;;;12.30;81.30;;;;;;6106282;23;20025;-87
2023/03/18 00:12:39;;;;;;;2.60;0.75;;;12.30;81.30;;;;;;6124759;23;20033;-87
2023/03/18 00:15:23;;;;;;;2.67;0.90;;;12.30;81.30;;;;;;6133145;23;20493;-87
2023/03/18 00:21:59;;;;;;;2.70;0.98;;;12.30;81.40;;;;;;6159918;23;20355;-87
2023/03/18 00:24:46;;;;;;;2.33;0.70;;;12.30;81.50;;;;;;6136986;23;20415;-87
2023/03/18 00:27:24;;;;;;;3.00;0.52;;;12.20;81.60;;;;;;6120893;23;20083;-91
2023/03/18 00:30:11;;;;;;;1.98;0.82;;;12.10;81.90;;;;;;6125149;23;20061;-92
2023/03/18 00:32:46;;;;;;;1.60;0.60;;;12.00;82.10;;;;;;6148502;23;20052;-91
2023/03/18 00:35:44;;;;;;;1.30;0.60;;;12.00;82.40;;;;;;6148213;23;20256;-91
2023/03/18 00:38:23;;;;;;;1.98;0.50;;;11.90;82.60;;;;;;6161387;23;20044;-92
2023/03/18 00:41:10;;;;;;;1.35;0.40;;;11.90;82.80;;;;;;6240316;22;20019;-92
2023/03/18 00:43:53;;;;;;;2.03;0.90;;;11.80;82.90;;;;;;6228594;22;20319;-91
2023/03/18 00:46:54;;;;;;;3.08;0.63;;;11.80;83.10;;;;;;6232362;22;20311;-91
2023/03/18 00:49:42;;;;;;;2.00;0.50;;;11.80;83.20;;;;;;6211904;22;20412;-92
2023/03/18 00:52:16;;;;;;;1.38;0.50;;;11.80;83.20;;;;;;6252745;22;20020;-91
2023/03/18 00:55:01;;;;;;;1.85;0.60;;;11.90;83.30;;;;;;6232826;22;20441;-90
2023/03/18 00:57:42;;;;;;;1.50;0.45;;;11.80;83.30;;;;;;6232879;22;20026;-91
2023/03/18 01:00:21;;;;;;;1.40;0.50;;;11.80;83.50;;;;;;6204676;22;20016;-92
2023/03/18 01:03:27;;;;;;;2.78;0.60;;;11.80;83.70;;;;;;6230760;22;20016;-91
2023/03/18 01:06:11;;;;;;;2.13;0.63;;;11.70;83.80;;;;;;6227826;22;20027;-91
2023/03/18 01:08:53;;;;;;;1.92;0.60;;;11.70;83.90;;;;;;6229577;22;20047;-92
2023/03/18 01:11:36;;;;;;;1.15;0.52;;;11.70;84.00;;;;;;6254363;22;20043;-92
2023/03/18 01:14:31;;;;;;;2.13;0.55;;;11.70;84.10;;;;;;6228409;22;20020;-91
2023/03/18 01:17:17;;;;;;;1.00;0.40;;;11.70;84.10;;;;;;6228794;22;20106;-91
2023/03/18 01:19:55;;;;;;;1.05;0.40;;;11.70;84.20;;;;;;6228302;22;20473;-92
2023/03/18 01:23:01;;;;;;;1.83;0.65;;;11.70;84.40;;;;;;6232510;22;20036;-91
2023/03/18 01:26:06;;;;;;;1.10;0.30;;;11.70;84.40;;;;;;6228052;22;20314;-91
2023/03/18 01:28:49;;;;;;;1.75;0.50;;;11.70;84.50;;;;;;6252009;22;20016;-92
2023/03/18 01:31:40;;;;;;;0.90;0.30;;;11.60;84.60;;;;;;6230113;22;20023;-92
2023/03/18 01:34:20;;;;;;;1.23;0.40;;;11.70;84.80;;;;;;6228605;22;20102;-92
2023/03/18 01:37:08;;;;;;;1.63;0.70;;;11.60;84.90;;;;;;6254995;22;20545;-91
2023/03/18 01:40:11;;;;;;;;;;;;;;;;;;;;;
2023/03/18 01:43:12;;;;;;;1.40;0.50;;;11.60;85.00;;;;;;6249303;22;20015;-92
2023/03/18 01:45:59;;;;;;;1.75;0.60;;;11.60;85.10;;;;;;6252722;22;20015;-92
2023/03/18 01:48:55;;;;;;;1.40;0.60;;;11.60;85.30;;;;;;6251545;22;20020;-92
2023/03/18 01:52:08;;;;;;;3.10;0.50;;;11.60;85.30;;;;;;6214755;22;20438;-92
2023/03/18 01:55:21;;;;;;;2.05;0.40;;;11.60;85.40;;;;;;6250908;22;20031;-92
2023/03/18 02:02:30;;;;;;;1.70;0.50;;;11.60;85.60;;;;;;6010404;23;20622;-92
2023/03/18 02:05:19;;;;;;;0.95;0.50;;;11.50;85.60;;;;;;5986899;23;20047;-92
2023/03/18 02:08:22;;;;;;;1.65;0.50;;;11.50;85.80;;;;;;5988070;23;20428;-92
2023/03/18 02:11:37;;;;;;;1.80;0.93;;;11.50;85.90;;;;;;6010796;23;20019;-91
2023/03/18 02:14:20;;;;;;;1.17;0.50;;;11.50;86.10;;;;;;6009205;23;20023;-91
2023/03/18 02:17:35;;;;;;;1.58;0.60;;;11.40;86.20;;;;;;6008627;23;20028;-92
2023/03/18 02:20:37;;;;;;;1.15;0.60;;;11.40;86.20;;;;;;6122878;23;20021;-92
2023/03/18 02:23:28;;;;;;;0.95;0.70;;;11.40;86.40;;;;;;6130144;23;20121;-92
2023/03/18 02:26:28;;;;;;;0.68;0.30;;;11.40;86.50;;;;;;6130090;23;20084;-92
2023/03/18 02:29:03;;;;;;;3.00;0.50;;;11.40;86.60;;;;;;6129702;23;20022;-91
2023/03/18 02:31:55;;;;;;;1.67;0.65;;;11.30;86.70;;;;;;6155139;22;20637;-91
2023/03/18 02:34:24;;;;;;;1.27;0.60;;;11.30;86.80;;;;;;6250691;22;20039;-91
2023/03/18 02:37:06;;;;;;;2.03;0.70;;;11.30;86.90;;;;;;6227478;22;20085;-91
2023/03/18 02:40:19;;;;;;;1.20;0.53;;;11.30;87.00;;;;;;6227191;22;20442;-91
2023/03/18 02:43:24;;;;;;;1.40;0.50;;;11.30;87.00;;;;;;6225296;22;20015;-91
2023/03/18 02:46:25;;;;;;;1.38;0.52;;;11.20;87.10;;;;;;6225798;22;20504;-91
2023/03/18 02:49:31;;;;;;;1.52;0.60;;;11.20;87.30;;;;;;6257184;22;20361;-91
2023/03/18 02:52:09;;;;;;;1.42;0.65;;;11.10;87.50;;;;;;6225643;22;20078;-91
2023/03/18 02:54:40;;;;;;;1.50;0.80;;;11.20;87.60;;;;;;6178692;22;20024;-92
2023/03/18 02:57:20;;;;;;;1.33;0.60;;;11.20;87.60;;;;;;6205532;22;20027;-92
2023/03/18 03:00:07;;;;;;;1.95;0.70;;;11.20;87.60;;;;;;6251895;22;20170;-93
2023/03/18 03:02:36;;;;;;;2.33;0.80;;;11.20;87.60;;;;;;6226054;22;20023;-93
2023/03/18 03:05:16;;;;;;;1.63;0.80;;;11.20;87.60;;;;;;6227872;22;20031;-92
2023/03/18 03:07:51;;;;;;;1.38;0.60;;;11.20;87.70;;;;;;6227747;22;20019;-92
2023/03/18 03:10:19;;;;;;;1.63;0.73;;;11.20;87.70;;;;;;6226639;22;20030;-93
2023/03/18 03:12:50;;;;;;;1.92;0.63;;;11.30;87.70;;;;;;6226944;22;20030;-92
2023/03/18 03:15:20;;;;;;;2.45;0.90;;;11.20;87.70;;;;;;6245890;22;20076;-92
2023/03/18 03:17:58;;;;;;;3.58;0.80;;;11.30;87.80;;;;;;6271952;22;20028;-92
2023/03/18 03:20:38;;;;;;;1.35;0.60;;;11.30;87.80;;;;;;6239570;22;20327;-92
2023/03/18 03:23:11;;;;;;;2.22;0.82;;;11.30;87.90;;;;;;6235381;22;20062;-93
2023/03/18 03:25:52;;;;;;;2.03;0.80;;;11.20;88.10;;;;;;6253109;22;20026;-92
2023/03/18 03:28:29;;;;;;;2.22;0.82;;;11.20;88.30;;;;;;6251906;22;20479;-92
2023/03/18 03:31:01;;;;;;;2.22;0.90;;;11.20;88.60;;;;;;6226768;22;20019;-92
2023/03/18 03:33:40;;;;;;;2.58;1.13;;;11.10;88.80;;;;;;6226769;22;20026;-92
2023/03/18 03:36:14;;;;;;;1.75;0.90;;;11.10;88.90;;;;;;6226589;22;20020;-93
2023/03/18 03:38:48;;;;;;;1.73;0.60;;;11.20;89.20;;;;;;6227159;22;20015;-92
2023/03/18 03:41:35;;;;;;;2.00;0.90;;;11.10;89.20;;;;;;6226438;22;20023;-92
2023/03/18 03:44:13;;;;;;;1.65;0.82;;;11.20;89.40;;;;;;6227269;22;20012;-92
2023/03/18 03:46:52;;;;;;;1.85;0.80;;;11.20;89.50;;;;;;6230456;22;20098;-92
2023/03/18 03:49:23;;;;;;;2.42;0.70;;;11.20;89.60;;;;;;6229669;22;20023;-92
2023/03/18 03:51:57;;;;;;;2.08;0.82;;;11.20;89.70;;;;;;6228240;22;20023;-92
2023/03/18 03:54:37;;;;;;;2.22;0.80;;;11.20;89.80;;;;;;6208050;22;20020;-92
2023/03/18 03:57:11;;;;;;;2.45;1.00;;;11.20;90.00;;;;;;6253375;22;20028;-92
2023/03/18 03:59:51;;;;;;;;;;;;;;;;;;;;;
2023/03/18 04:02:45;;;;;;;2.05;0.70;;;11.20;90.10;;;;;;6261161;22;20081;-92
2023/03/18 04:05:23;;;;;;;1.38;0.50;;;11.10;90.10;;;;;;6266629;22;20011;-91
2023/03/18 04:08:04;;;;;;;2.15;0.82;;;11.20;90.20;;;;;;6271293;22;20012;-92
2023/03/18 04:10:36;;;;;;;4.45;0.80;;;11.20;90.30;;;;;;6268450;22;20047;-92
2023/03/18 04:13:10;;;;;;;2.00;0.90;;;11.20;90.40;;;;;;6230327;22;20098;-92
2023/03/18 04:15:49;;;;;;;1.90;0.80;;;11.20;90.50;;;;;;6252168;22;20465;-91
2023/03/18 04:18:30;;;;;;;2.88;1.00;;;11.20;90.50;;;;;;6228191;22;20020;-92
2023/03/18 04:21:00;;;;;;;2.60;0.85;;;11.20;90.50;;;;;;6205776;22;20103;-92
2023/03/18 04:23:54;;;;;;;2.22;0.80;;;11.20;90.60;;;;;;6252431;22;20026;-92
2023/03/18 04:26:30;;;;;;;2.22;1.02;;;11.20;90.60;;;;;;6228535;22;20039;-92
2023/03/18 04:29:03;;;;;;;2.72;0.90;;;11.20;90.70;;;;;;6252585;22;20071;-92
2023/03/18 04:31:48;;;;;;;3.08;1.23;;;11.20;90.80;;;;;;6229750;22;20319;-91
2023/03/18 04:34:22;;;;;;;3.40;1.25;;;11.20;90.90;;;;;;6252755;22;20023;-92
2023/03/18 04:37:00;;;;;;;2.53;1.10;;;11.20;90.90;;;;;;6252522;22;20016;-92
2023/03/18 04:39:32;;;;;;;3.87;1.40;;;11.20;91.00;;;;;;6226349;22;20102;-93
2023/03/18 04:42:03;;;;;;;2.67;1.23;;;11.20;91.00;;;;;;6228178;22;20066;-91
2023/03/18 04:44:40;;;;;;;3.95;1.42;;;11.20;91.10;;;;;;6227614;22;20012;-93
2023/03/18 04:47:13;;;;;;;2.25;0.98;;;11.20;91.10;;;;;;6227860;22;20065;-93
2023/03/18 04:49:48;;;;;;;3.63;1.48;;;11.20;91.20;;;;;;6228100;22;20111;-92
2023/03/18 04:52:20;;;;;;;3.83;1.90;;;11.20;91.30;;;;;;6228366;22;20019;-92
2023/03/18 04:54:51;;;;;;;4.57;1.58;;;11.20;91.30;;;;;;6227748;22;20027;-92
2023/03/18 04:57:28;;;;;;;2.22;1.17;;;11.20;91.40;;;;;;6227708;22;20098;-92
2023/03/18 04:59:59;;;;;;;2.90;1.13;;;11.20;91.50;;;;;;6227242;22;20085;-92
2023/03/18 05:02:45;;;;;;;3.60;1.42;;;11.20;91.50;;;;;;6230094;22;20057;-93
2023/03/18 05:05:28;;;;;;;5.03;2.20;;;11.20;91.60;;;;;;6227387;22;20066;-92
2023/03/18 05:08:02;;;;;;;4.57;2.40;;;11.20;91.60;;;;;;6229501;22;20043;-93
2023/03/18 05:10:39;;;;;;;5.07;2.30;;;11.20;91.70;;;;;;6227800;22;20078;-93
2023/03/18 05:13:24;;;;;;;5.10;2.35;;;11.20;91.70;;;;;;6252063;22;20030;-92
2023/03/18 05:16:26;;;;;;;7.60;3.65;;;11.20;91.80;;;;;;6226523;22;20102;-93
2023/03/18 05:18:58;;;;;;;4.60;2.40;;;11.20;91.90;;;;;;6252021;22;20020;-93
2023/03/18 05:21:32;;;;;;;5.82;2.60;;;11.20;91.90;;;;;;6227549;22;20015;-93
2023/03/18 05:24:13;;;;;;;4.97;2.83;;;11.20;92.00;;;;;;6252546;22;20020;-93
2023/03/18 05:27:12;;;;;;;5.70;3.17;;;11.10;92.10;;;;;;6252490;22;20012;-93
2023/03/18 05:29:53;;;;;;;5.75;2.50;;;11.10;92.20;;;;;;6229855;22;20015;-92
2023/03/18 05:32:40;;;;;;;4.05;1.95;;;11.10;92.30;;;;;;6230276;22;20095;-92
2023/03/18 05:35:18;;;;;;;5.43;2.33;;;11.00;92.30;;;;;;6227760;22;20016;-93
2023/03/18 05:37:50;;;;;;;3.92;2.40;;;11.00;92.40;;;;;;6227639;22;20023;-93
2023/03/18 05:40:20;;;;;;;3.67;1.88;;;11.00;92.50;;;;;;6230936;22;20015;-93
2023/03/18 05:43:23;;;;;;;3.17;2.00;;;11.00;92.50;;;;;;6235115;22;20016;-92
2023/03/18 05:45:59;;;;;;;3.55;1.70;;;11.00;92.50;;;;;;6228959;22;20020;-92
2023/03/18 05:48:51;;;;;;;3.95;1.50;;;11.00;92.60;;;;;;6233611;22;20050;-92
2023/03/18 05:51:23;;;;;;;3.78;2.03;;;11.00;92.60;;;;;;6228139;22;20019;-93
2023/03/18 05:53:51;;;;;;;4.05;1.80;;;11.00;92.70;;;;;;6226656;22;20020;-92
2023/03/18 05:56:23;;;;;;;4.28;1.40;;;11.00;92.70;;;;;;6227487;22;20022;-93
2023/03/18 05:58:55;;;;;;;4.57;2.22;;;11.00;92.80;;;;;;6226917;22;20082;-85
2023/03/18 06:01:30;;;;;;;3.60;2.13;;;11.00;92.80;;;;;;6226335;22;20095;-94
2023/03/18 06:04:00;;;;;;;4.22;2.38;;;11.00;92.80;;;;;;6226276;22;20069;-91
2023/03/18 06:06:31;;;;;;;5.00;2.55;;;11.00;92.80;;;;;;6226283;22;20434;-94
2023/03/18 06:08:59;;;;;;;4.07;2.33;;;11.10;92.90;;;;;;6226277;22;20027;-93
2023/03/18 06:11:28;;;;;;;4.35;2.92;;;11.10;92.90;;;;;;6202578;22;20039;-93
2023/03/18 06:13:55;;;;;;;5.03;2.03;;;11.10;92.90;;;;;;6226436;22;20143;-92
2023/03/18 06:16:24;;;;;;;5.95;3.22;;;11.10;92.90;;;;;;6226431;22;20108;-93
2023/03/18 06:19:03;;;;;;;5.50;3.25;;;11.10;92.90;;;;;;6226662;22;20023;-93
2023/03/18 06:21:33;;;;;;;6.30;3.47;;;11.20;93.00;;;;;;6226352;22;20397;-92
2023/03/18 06:24:02;;;;;;;5.90;3.20;;;11.20;93.00;;;;;;6227430;22;20020;-93
2023/03/18 06:26:32;;;;;;;7.63;2.75;;;11.20;93.00;;;;;;6227038;22;20022;-92
2023/03/18 06:29:02;;;;;;;3.97;2.58;;;11.20;93.00;;;;;;6227321;22;20015;-92
2023/03/18 06:31:31;;;;;;;6.47;3.58;;;11.30;93.00;;;;;;6226554;22;20019;-93
2023/03/18 06:34:01;;;;;;;7.30;3.13;;;11.30;93.10;;;;;;6226628;22;20024;-90
2023/03/18 06:36:32;;;;;;;8.40;3.20;;;11.40;93.10;;;;;;6226562;22;20027;-91
2023/03/18 06:39:01;;;;;;;6.60;3.65;;;11.40;93.10;;;;;;6226926;22;20032;-90
2023/03/18 06:41:29;;;;;;;6.88;3.83;;;11.40;93.30;;;;;;6226656;22;20015;-91
2023/03/18 06:44:07;;;;;;;9.43;5.30;;;11.40;93.10;;;;;;6251349;22;20019;-91
2023/03/18 06:46:34;;;;;;;9.38;5.70;;;11.50;93.20;;;;;;6225953;22;20441;-91
2023/03/18 06:49:03;;;;;;;7.85;4.93;;;11.50;93.20;;;;;;6202520;22;20015;-92
2023/03/18 06:51:35;;;;;;;8.52;5.43;;;11.50;93.20;;;;;;6203177;22;20043;-91
2023/03/18 06:54:04;;;;;;;7.43;4.32;;;11.60;93.30;;;;;;6226077;22;20023;-91
2023/03/18 06:56:37;;;;;;;8.25;4.93;;;11.60;93.20;;;;;;6225956;22;20357;-90
2023/03/18 06:59:15;;;;;;;6.00;3.60;;;11.70;93.20;;;;;;6228058;22;20107;-91
2023/03/18 07:01:48;;;;;;;8.55;4.13;;;11.70;93.20;;;;;;6251328;22;20046;-90
2023/03/18 07:04:22;;;;;;;6.70;3.80;;;11.80;93.20;;;;;;6226884;22;20114;-90
2023/03/18 07:06:51;;;;;;;;;;;11.80;93.20;;;;;;6202812;22;20516;-90
2023/03/18 07:09:23;;;;;;;5.65;3.03;;;11.80;93.30;;;;;;6226268;22;19919;-94
2023/03/18 07:11:53;;;;;;;9.95;4.40;;;11.80;93.20;;;;;;6202945;22;20091;-94
2023/03/18 07:14:27;;;;;;;7.10;4.27;;;11.90;93.30;;;;;;6226670;22;20016;-93
2023/03/18 07:16:58;;;;;;;10.93;6.38;;;11.80;93.30;;;;;;6226194;22;20073;-94
2023/03/18 07:19:25;;;;;;;10.68;5.75;;;11.90;93.40;;;;;;6226318;22;20020;-93
2023/03/18 07:21:53;;;;;;;11.82;5.90;;;11.90;93.40;;;;;;6240610;22;20039;-93
2023/03/18 07:24:20;;;;;;;10.60;6.28;;;11.90;93.40;;;;;;6246403;22;19999;-93
2023/03/18 07:26:51;;;;;;;9.93;6.78;;;11.90;93.50;;;;;;6239805;22;20020;-94
2023/03/18 07:29:19;;;;;;;10.48;6.00;;;11.90;93.60;;;;;;6229949;22;20022;-94
2023/03/18 07:31:50;;;;;;;9.82;5.65;;;12.00;93.60;;;;;;6225664;22;20361;-87
2023/03/18 07:34:18;;;;;;;10.25;5.25;;;12.10;93.50;;;;;;6224023;22;20426;-87
2023/03/18 07:36:52;;;;;;;8.57;5.10;;;12.20;93.50;;;;;;6226826;22;20016;-94
2023/03/18 07:39:20;;;;;;;8.02;5.25;;;12.20;93.40;;;;;;6226389;22;20031;-93
2023/03/18 07:41:52;;;;;;;8.13;5.03;;;12.10;93.50;;;;;;6226790;22;20020;-94
2023/03/18 07:44:30;;;;;;;9.80;5.18;;;12.10;93.60;;;;;;6207070;22;20077;-93
2023/03/18 07:47:05;;;;;;;9.52;5.20;;;12.00;94.00;;;;;;6227480;22;20464;-92
2023/03/18 07:49:35;;;;;;;7.65;4.55;;;11.90;93.90;;;;;;6237002;22;20042;-93
2023/03/18 07:52:03;;;;;;;10.35;5.97;;;11.90;93.90;;;;;;6190039;22;20051;-93
2023/03/18 07:54:30;;;;;;;9.60;5.57;;;12.00;93.90;;;;;;6240693;22;20000;-93
2023/03/18 07:57:02;;;;;;;8.95;6.32;;;12.10;93.90;;;;;;6236038;22;20090;-94
2023/03/18 07:59:30;;;;;;;8.65;4.90;;;12.20;93.90;;;;;;6226196;22;20019;-94
2023/03/18 08:02:03;;;;;;;8.73;5.85;;;12.30;93.70;;;;;;6226520;22;20488;-94
2023/03/18 08:04:31;;;;;;;11.77;7.28;;;12.40;93.70;;;;;;6210831;22;20019;-94
2023/03/18 08:06:59;;;;;;;13.70;8.57;;;12.50;93.70;;;;;;6230481;22;20042;-94
2023/03/18 08:09:26;;;;;;;11.27;7.45;;;12.60;93.80;;;;;;6226248;22;20016;-94
2023/03/18 08:11:54;;;;;;;8.85;6.00;;;12.60;93.70;;;;;;6225640;22;20080;-94
2023/03/18 08:14:22;;;;;;;9.68;6.10;;;12.70;93.60;;;;;;6225920;22;20065;-93
2023/03/18 08:16:49;;;;;;;11.27;7.47;;;12.80;93.60;;;;;;6201071;22;20016;-94
2023/03/18 08:19:17;;;;;;;12.32;7.13;;;12.90;93.60;;;;;;6200866;22;20024;-93
2023/03/18 08:21:44;;;;;;;10.75;6.82;;;12.90;93.60;;;;;;6225587;22;20026;-94
2023/03/18 08:24:11;;;;;;;12.18;6.93;;;13.00;93.50;;;;;;6225600;22;20026;-94
2023/03/18 08:26:39;;;;;;;7.47;5.43;;;13.10;93.50;;;;;;6200717;22;20043;-93
2023/03/18 08:29:07;;;;;;;8.80;6.05;;;13.20;93.30;;;;;;6225617;22;20054;-94
2023/03/18 08:31:34;;;;;;;13.57;5.97;;;13.30;93.20;;;;;;6225493;22;20023;-87
2023/03/18 08:34:09;;;;;;;9.63;6.45;;;13.40;93.20;;;;;;6226411;22;20106;-87
2023/03/18 08:36:45;;;;;;;9.40;6.25;;;13.30;93.10;;;;;;6202424;22;20030;-87
2023/03/18 08:39:18;;;;;;;11.60;5.85;;;13.30;93.10;;;;;;6251422;22;20020;-87
2023/03/18 08:41:49;;;;;;;12.02;5.57;;;13.40;93.20;;;;;;6226158;22;20018;-87
2023/03/18 08:44:22;;;;;;;7.63;4.93;;;13.40;93.10;;;;;;6226426;22;20053;-87
2023/03/18 08:46:50;;;;;;;8.02;4.93;;;13.50;93.00;;;;;;6225862;22;20023;-87
2023/03/18 08:49:24;;;;;;;9.05;5.82;;;13.50;92.90;;;;;;6226719;22;20023;-87
2023/03/18 08:51:51;;;;;;;6.35;3.97;;;13.60;92.90;;;;;;6226099;22;20024;-87
2023/03/18 08:54:20;;;;;;;7.93;4.35;;;13.60;92.80;;;;;;6225581;22;20023;-87
2023/03/18 08:56:51;;;;;;;8.00;4.53;;;13.70;92.80;;;;;;6226174;22;20027;-88
2023/03/18 08:59:21;;;;;;;10.23;4.88;;;13.80;92.70;;;;;;6251155;22;20107;-87
2023/03/18 09:01:52;;;;;;;7.93;4.63;;;13.80;92.60;;;;;;6225741;22;20016;-87
2023/03/18 09:04:24;;;;;;;5.68;4.05;;;14.00;92.60;;;;;;6225876;22;20050;-87
2023/03/18 09:06:52;;;;;;;6.63;3.83;;;14.10;92.40;;;;;;6225570;22;20095;-87
2023/03/18 09:09:22;;;;;;;6.30;3.90;;;14.20;92.30;;;;;;6225952;22;20019;-87
2023/03/18 09:12:04;;;;;;;9.77;5.10;;;14.30;92.20;;;;;;6228432;22;20030;-87
2023/03/18 09:14:39;;;;;;;6.90;3.90;;;14.40;92.00;;;;;;6226751;22;20101;-87
2023/03/18 09:17:09;;;;;;;7.22;4.10;;;14.50;91.90;;;;;;6225024;22;20020;-87
2023/03/18 09:19:37;;;;;;;6.13;3.88;;;14.60;91.70;;;;;;6225475;22;20027;-87
2023/03/18 09:22:13;;;;;;;6.50;3.75;;;14.60;91.70;;;;;;6225491;22;20022;-88
2023/03/18 09:24:45;;;;;;;5.07;3.35;;;14.80;91.60;;;;;;6204005;22;20019;-94
2023/03/18 09:27:15;;;;;;;4.38;2.55;;;14.90;91.60;;;;;;6227300;22;20019;-93
2023/03/18 09:29:42;;;;;;;5.15;3.10;;;15.00;91.50;;;;;;6226171;22;20020;-93
2023/03/18 09:32:14;;;;;;;5.03;3.05;;;15.10;91.40;;;;;;6226711;22;20043;-93
2023/03/18 09:34:45;;;;;;;8.23;4.82;;;15.10;91.20;;;;;;6225903;22;20026;-92
2023/03/18 09:37:15;;;;;;;7.72;4.03;;;15.10;90.80;;;;;;6226764;22;20019;-93
2023/03/18 09:39:47;;;;;;;5.53;3.67;;;15.10;91.00;;;;;;6226817;22;20026;-93
2023/03/18 09:42:27;;;;;;;4.03;2.63;;;15.10;91.10;;;;;;6201920;22;20039;-92
2023/03/18 09:45:02;;;;;;;6.00;3.33;;;15.10;91.10;;;;;;6251878;22;20022;-93
2023/03/18 09:47:58;;;;;;;5.60;3.80;;;15.10;91.10;;;;;;6226417;22;20016;-93
2023/03/18 09:50:44;;;;;;;7.75;5.40;;;15.00;91.00;;;;;;6226808;22;20077;-93
2023/03/18 09:53:58;;;;;;;6.20;4.43;;;14.80;91.00;;;;;;6227210;22;20026;-93
2023/03/18 09:56:34;;;;;;;7.40;4.00;;;14.60;91.20;;;;;;6243026;22;20115;-94
2023/03/18 09:59:36;;;;;;;8.18;4.55;;;14.50;91.30;;;;;;6226974;22;20031;-93
2023/03/18 10:02:37;;;;;;;7.05;4.30;;;14.50;91.20;;;;;;6251297;22;20027;-93
2023/03/18 10:05:19;;;;;;;5.68;3.63;;;14.50;91.10;;;;;;6226478;22;20015;-92
2023/03/18 10:08:20;;;;;;;5.82;3.40;;;14.50;91.10;;;;;;6251159;22;20019;-91
2023/03/18 10:11:46;;;;;;;3.65;2.22;;;14.60;91.10;;;;;;6229436;22;20028;-91
2023/03/18 10:14:53;;;;;;;4.18;2.67;;;14.70;91.00;;;;;;6225942;22;20023;-91
2023/03/18 10:17:29;;;;;;;5.00;3.67;;;14.80;90.80;;;;;;6251435;22;20016;-92
2023/03/18 10:20:10;;;;;;;8.85;4.35;;;14.70;90.70;;;;;;6227502;22;20016;-92
2023/03/18 10:22:58;;;;;;;6.57;4.43;;;14.70;90.70;;;;;;6229047;22;20441;-92
2023/03/18 10:25:51;;;;;;;6.60;4.30;;;14.60;90.70;;;;;;6227083;22;20019;-93
2023/03/18 10:28:43;;;;;;;7.72;4.95;;;14.60;90.70;;;;;;6259493;22;20012;-92
2023/03/18 10:31:29;;;;;;;8.32;4.60;;;14.70;90.50;;;;;;6253099;22;20026;-93
2023/03/18 10:34:00;;;;;;;7.38;4.72;;;14.70;90.40;;;;;;6226429;22;20047;-93
2023/03/18 10:37:05;;;;;;;6.25;3.97;;;14.70;90.30;;;;;;6251279;22;20019;-92
2023/03/18 10:39:38;;;;;;;5.05;2.80;;;14.80;90.30;;;;;;6251586;22;20027;-93
2023/03/18 10:42:30;;;;;;;5.47;3.33;;;14.80;90.30;;;;;;6225902;22;20023;-91
2023/03/18 10:45:22;;;;;;;6.75;4.30;;;14.90;90.20;;;;;;6253475;22;20063;-92
2023/03/18 10:48:38;;;;;;;8.25;4.15;;;14.90;90.00;;;;;;6226392;22;20441;-92
2023/03/18 10:51:34;;;;;;;4.45;2.80;;;14.90;90.10;;;;;;6254764;22;20094;-93
2023/03/18 10:55:01;;;;;;;3.83;2.22;;;15.00;90.10;;;;;;6254212;22;20410;-89
2023/03/18 10:57:28;;;;;;;3.67;1.90;;;15.20;89.90;;;;;;6225031;22;20016;-88
2023/03/18 11:00:13;;;;;;;3.63;1.65;;;15.30;89.80;;;;;;6199499;22;20023;-86
2023/03/18 11:02:43;;;;;;;3.47;1.80;;;15.50;89.50;;;;;;6275396;22;20403;-84
2023/03/18 11:05:10;;;;;;;5.18;2.90;;;15.60;89.80;;;;;;6248688;22;20070;-85
2023/03/18 11:07:59;;;;;;;5.15;3.15;;;15.70;88.50;;;;;;6249538;22;20098;-86
2023/03/18 11:10:43;;;;;;;4.43;2.50;;;15.80;88.30;;;;;;6249350;22;20015;-87
2023/03/18 11:13:17;;;;;;;3.20;1.63;;;15.80;88.40;;;;;;6249645;22;20024;-88
2023/03/18 11:15:53;;;;;;;5.88;1.77;;;15.90;88.50;;;;;;6248790;22;20047;-85
2023/03/18 11:18:23;;;;;;;3.15;1.50;;;16.00;88.40;;;;;;6249135;22;20061;-89
2023/03/18 11:20:59;;;;;;;3.50;1.38;;;16.00;88.20;;;;;;6224373;22;20043;-88
2023/03/18 11:23:54;;;;;;;2.67;1.30;;;16.00;88.40;;;;;;6225186;22;20058;-91
2023/03/18 11:26:29;;;;;;;2.50;0.80;;;15.90;88.40;;;;;;6249276;22;20381;-87
2023/03/18 11:28:59;;;;;;;1.80;0.93;;;16.00;88.50;;;;;;6225050;22;20378;-86
2023/03/18 11:31:26;;;;;;;2.67;1.13;;;16.00;88.20;;;;;;6223935;22;20020;-85
2023/03/18 11:33:59;;;;;;;2.30;1.00;;;16.10;88.00;;;;;;6233864;22;20027;-91
2023/03/18 11:36:33;;;;;;;3.88;1.27;;;16.20;87.20;;;;;;6207988;22;20024;-90
2023/03/18 11:39:20;;;;;;;2.67;1.45;;;16.20;86.60;;;;;;6225060;22;20066;-88
2023/03/18 11:42:15;;;;;;;5.07;1.55;;;16.30;86.70;;;;;;6224628;22;20167;-89
2023/03/18 11:45:05;;;;;;;3.03;1.60;;;16.40;85.90;;;;;;6250009;22;20529;-88
2023/03/18 11:47:52;;;;;;;2.90;1.63;;;16.50;85.10;;;;;;6226834;22;20463;-88
2023/03/18 11:51:12;;;;;;;4.35;1.92;;;16.50;84.80;;;;;;6225011;22;20016;-88
2023/03/18 11:54:09;;;;;;;4.30;1.50;;;16.70;83.90;;;;;;6225028;22;20122;-88
2023/03/18 11:57:27;;;;;;;2.90;1.33;;;16.80;83.10;;;;;;6213958;22;20449;-88
2023/03/18 12:00:41;;;;;;;2.40;1.08;;;17.00;82.80;;;;;;6224811;22;20449;-88
2023/03/18 12:03:58;;;;;;;2.42;1.38;;;17.20;81.90;;;;;;6229628;22;20020;-87
2023/03/18 12:06:54;;;;;;;3.05;1.48;;;17.40;81.40;;;;;;6225896;22;20019;-88
2023/03/18 12:10:25;;;;;;;4.15;1.02;;;17.50;80.00;;;;;;6226274;22;20028;-88
2023/03/18 12:13:59;;;;;;;2.17;0.85;;;17.70;80.00;;;;;;6219377;22;20051;-87
2023/03/18 12:17:29;;;;;;;4.22;1.58;;;17.90;79.50;;;;;;6228573;22;20049;-88
2023/03/18 12:20:12;;;;;;;2.03;1.02;;;17.90;78.40;;;;;;6224681;22;20047;-89
2023/03/18 12:23:52;;;;;;;2.80;1.30;;;17.70;78.50;;;;;;6229483;22;20077;-89
2023/03/18 12:27:27;;;;;;;2.33;1.25;;;17.60;79.40;;;;;;6185792;22;20016;-89
2023/03/18 12:30:13;;;;;;;2.72;1.35;;;17.60;79.80;;;;;;6251710;22;20020;-89
2023/03/18 12:33:13;;;;;;;3.60;1.30;;;17.50;80.20;;;;;;6250880;22;20094;-90
2023/03/18 12:36:00;;;;;;;2.55;1.30;;;17.50;80.50;;;;;;6227454;22;20019;-89
2023/03/18 12:38:39;;;;;;;;;;;17.40;80.60;;;;;;6227095;22;20020;-86
2023/03/18 12:41:31;;;;;;;2.17;0.90;;;17.30;81.10;;;;;;6225853;22;20322;-88
2023/03/18 12:44:32;;;;;;;3.83;1.17;;;17.20;81.20;;;;;;6251010;22;20335;-84
2023/03/18 12:47:05;;;;;;;3.00;1.20;;;17.30;81.10;;;;;;6250244;22;20016;-86
2023/03/18 12:49:41;;;;;;;3.70;1.10;;;17.30;81.20;;;;;;6226734;22;20023;-90
2023/03/18 12:52:34;;;;;;;2.55;1.08;;;17.40;81.10;;;;;;6226394;22;20030;-86
2023/03/18 12:55:10;;;;;;;2.67;1.38;;;17.40;80.60;;;;;;6252224;22;20024;-88
2023/03/18 12:57:58;;;;;;;5.05;1.30;;;17.40;79.80;;;;;;6226640;22;20026;-83
2023/03/18 13:04:12;;;;;;;3.25;1.30;;;17.10;78.70;;;;;;6250935;22;20102;-92
2023/03/18 13:07:05;;;;;;;2.40;0.93;;;16.90;78.70;;;;;;6226938;22;20020;-86
2023/03/18 13:10:21;;;;;;;2.17;0.77;;;16.80;79.50;;;;;;6224755;22;20466;-85
2023/03/18 13:12:56;;;;;;;2.65;1.30;;;16.80;79.70;;;;;;6200117;22;20024;-85
2023/03/18 13:15:39;;;;;;;2.53;1.45;;;16.70;79.30;;;;;;6251098;22;20346;-91
2023/03/18 13:18:34;;;;;;;3.75;1.10;;;16.80;78.70;;;;;;6227645;22;20051;-89
2023/03/18 13:21:20;;;;;;;2.80;0.75;;;16.70;79.00;;;;;;6226553;22;20087;-86
2023/03/18 14:15:48;;;;;;;2.13;0.85;;;15.50;77.50;;;;;;5058507;27;1546089;-85
2023/03/18 14:55:58;;;;;;;1.95;0.30;;;15.80;78.90;;;;;;5553411;22;17575583;-87
2023/03/18 14:58:46;;;;;;;1.33;0.30;;;16.30;80.30;;;;;;6229850;23;20020;-83
2023/03/18 15:01:46;;;;;;;2.10;0.30;;;16.00;81.80;;;;;;6202312;23;20395;-86
2023/03/18 15:05:03;;;;;;;1.10;0.38;;;15.90;81.20;;;;;;6078615;23;20037;-86
2023/03/18 15:12:36;;;;;;;2.30;0.30;;;15.70;81.50;;;;;;6131459;23;20349;-86
2023/03/18 15:15:23;;;;;;;1.17;0.30;;;15.70;81.90;;;;;;6061171;23;20018;-91
2023/03/18 15:17:52;;;;;;;0.80;0.30;;;15.70;81.80;;;;;;6111866;23;20441;-89
2023/03/18 15:20:24;;;;;;;1.13;0.30;;;15.70;81.70;;;;;;6134186;23;20022;-86
2023/03/18 15:23:48;;;;;;;1.98;0.30;;;15.80;81.50;;;;;;6131273;23;20460;-86
2023/03/18 15:27:17;;;;;;;2.42;0.40;;;15.90;81.20;;;;;;6090554;23;20434;-87
2023/03/18 15:29:52;;;;;;;0.82;0.50;;;16.20;80.20;;;;;;6176109;23;20485;-85
2023/03/18 15:33:03;;;;;;;1.55;0.40;;;16.40;79.80;;;;;;6195734;23;20476;-85
2023/03/18 15:36:10;;;;;;;1.02;0.50;;;16.60;79.50;;;;;;6221143;23;20094;-85
2023/03/18 15:39:26;;;;;;;2.50;0.70;;;16.70;79.20;;;;;;6190883;23;20020;-85
2023/03/18 15:42:42;;;;;;;2.75;1.00;;;16.60;79.20;;;;;;6257415;22;20023;-84
2023/03/18 15:45:20;;;;;;;3.40;0.80;;;16.40;79.40;;;;;;6283599;22;20042;-90
2023/03/18 15:57:20;;;;;;;2.10;0.52;;;16.00;79.50;;;;;;6154226;23;20032;-88
2023/03/18 16:00:32;;;;;;;2.22;0.60;;;16.00;79.60;;;;;;6133961;22;20025;-88
2023/03/18 16:03:54;;;;;;;1.45;0.32;;;16.00;79.70;;;;;;6254391;22;20035;-88
2023/03/18 16:06:39;;;;;;;2.17;0.43;;;15.90;79.90;;;;;;6251379;22;20476;-87